Colmenar de Oreja, Spain
Current Conditions -  °F | °C
As of 9:00 PM on Thursday 27 Nov 2014 (Local Time) from LEGT Reporting Station
Scattered Clouds Scattered Clouds  
Wind Chill: 45°   Ceiling: Unl
Heat Index: 48°   Visibility: 6mi
Dew Point: 46°   Wind: 8mph
Humidity: 93%   Direction: 140°SE
Pressure: 29.35"   Gusts: NA
Location:  40.11°N, 3.39°W
Report Text: LEGT 272000Z 14007KT 9999 FEW020 SCT040 09/08 Q0994
Loading
Personal Weather Stations






























Interactive Weather Map New forecast layout! Learn more

10-Day Weather Forecast

Advertisements
Track Severe Weather on mobile